createdAt,value
2023-04-27T04:55:23.948Z,4.60
2023-04-27T05:00:27.872Z,4.80
2023-04-27T05:05:31.312Z,5.40
2023-04-27T05:10:36.492Z,5.80
2023-04-27T05:15:39.974Z,6.00
2023-04-27T05:20:44.077Z,6.10
2023-04-27T05:25:48.963Z,6.50
2023-04-27T05:30:53.461Z,6.70
2023-04-27T05:35:56.845Z,6.90
2023-04-27T05:41:01.669Z,7.00
2023-04-27T05:46:05.817Z,7.10
2023-04-27T05:51:09.269Z,7.30
2023-04-27T05:56:14.065Z,7.40
2023-04-27T06:01:17.523Z,7.40
2023-04-27T06:06:21.197Z,7.60
2023-04-27T06:11:26.061Z,7.70
2023-04-27T06:16:29.769Z,7.80
2023-04-27T06:21:34.207Z,7.80
2023-04-27T06:26:39.276Z,7.70
2023-04-27T06:31:42.750Z,7.90
2023-04-27T06:36:46.357Z,8.00
2023-04-27T06:41:51.185Z,7.90
2023-04-27T06:46:54.625Z,7.90
2023-04-27T06:51:58.278Z,8.20
2023-04-27T06:57:03.351Z,8.50
2023-04-27T07:02:07.121Z,8.40
2023-04-27T07:07:10.793Z,8.40
2023-04-27T07:12:15.515Z,8.40
2023-04-27T07:17:18.915Z,8.60
2023-04-27T07:22:23.292Z,9.00
2023-04-27T07:27:28.101Z,9.30
2023-04-27T07:32:31.614Z,9.50
2023-04-27T07:37:35.052Z,9.80
2023-04-27T07:42:41.359Z,10.10
2023-04-27T07:47:45.057Z,10.20
2023-04-27T07:52:48.476Z,10.50
2023-04-27T07:57:56.204Z,10.80
2023-04-27T08:02:59.904Z,10.80
2023-04-27T08:08:03.529Z,10.70
2023-04-27T08:13:09.930Z,10.80
2023-04-27T08:18:13.376Z,10.90
2023-04-27T08:23:17.051Z,11.10
2023-04-27T08:28:23.229Z,11.10
2023-04-27T08:33:26.768Z,10.80
2023-04-27T08:38:30.203Z,10.90
2023-04-27T08:43:38.030Z,11.20
2023-04-27T08:48:41.429Z,11.40
2023-04-27T08:53:50.710Z,11.60
2023-04-27T08:58:56.860Z,11.70
2023-04-27T09:04:02.337Z,11.80
2023-04-27T09:09:07.020Z,11.80
2023-04-27T09:14:22.410Z,11.90
2023-04-27T09:19:27.177Z,11.70
2023-04-27T09:24:31.007Z,11.50
2023-04-27T09:29:37.382Z,11.60
2023-04-27T09:34:41.268Z,11.70
2023-04-27T09:39:44.934Z,11.60
2023-04-27T09:44:51.010Z,11.60
2023-04-27T09:49:54.506Z,11.60
2023-04-27T09:55:00.703Z,11.60
2023-04-27T10:00:21.709Z,11.60
2023-04-27T10:06:13.187Z,11.70
2023-04-27T10:11:19.044Z,11.90
2023-04-27T10:22:43.869Z,12.00
2023-04-27T10:27:52.287Z,11.90
2023-04-27T10:32:57.451Z,11.90
2023-04-27T10:38:08.557Z,12.10
2023-04-27T10:43:13.255Z,12.20
2023-04-27T10:48:16.692Z,12.00
2023-04-27T10:53:21.737Z,12.00
2023-04-27T10:58:29.835Z,12.50
2023-04-27T11:03:39.109Z,12.70
2023-04-27T11:08:46.614Z,12.70
2023-04-27T11:13:52.839Z,13.00
2023-04-27T11:18:57.916Z,13.20
2023-04-27T11:24:08.578Z,12.90
2023-04-27T11:29:14.284Z,12.60
2023-04-27T11:34:19.551Z,12.00
2023-04-27T11:39:25.056Z,11.80
2023-04-27T11:44:28.680Z,11.70
2023-04-27T11:49:32.204Z,11.70
2023-04-27T11:54:38.745Z,12.10
2023-04-27T11:59:42.589Z,12.20
2023-04-27T12:04:46.709Z,12.10
2023-04-27T12:09:51.825Z,12.10
2023-04-27T12:14:55.270Z,12.30
2023-04-27T12:19:58.642Z,12.50
2023-04-27T12:25:03.841Z,12.70
2023-04-27T12:30:09.462Z,12.90
2023-04-27T12:35:13.124Z,12.90
2023-04-27T12:40:20.457Z,13.20
2023-04-27T12:45:23.865Z,13.60
2023-04-27T12:50:27.792Z,13.60
2023-04-27T12:55:34.532Z,13.90
2023-04-27T13:00:38.562Z,13.70
2023-04-27T13:05:41.983Z,14.10
2023-04-27T13:10:46.936Z,14.00
2023-04-27T13:15:50.691Z,14.00
2023-04-27T13:20:54.115Z,13.70
2023-04-27T13:25:59.020Z,13.70
2023-04-27T13:31:03.142Z,13.50
2023-04-27T13:36:07.077Z,13.40
2023-04-27T13:41:11.829Z,13.70
2023-04-27T13:46:15.535Z,13.90
2023-04-27T13:51:19.356Z,14.30
2023-04-27T13:56:24.551Z,15.10
2023-04-27T14:01:29.249Z,15.60
2023-04-27T14:06:33.064Z,15.80
2023-04-27T14:11:48.873Z,16.00
2023-04-27T14:16:56.885Z,16.50
2023-04-27T14:22:01.389Z,17.60
2023-04-27T14:27:06.235Z,18.60
2023-04-27T14:32:10.257Z,19.90
2023-04-27T14:37:13.984Z,21.90
2023-04-27T14:42:18.808Z,24.50
2023-04-27T14:47:22.370Z,25.30
2023-04-27T14:52:25.967Z,25.60
2023-04-27T14:57:32.027Z,26.20
2023-04-27T15:02:35.833Z,28.10
2023-04-27T15:07:39.323Z,29.10
2023-04-27T15:12:44.157Z,29.60
2023-04-27T15:17:47.685Z,30.00
2023-04-27T15:22:51.321Z,28.30
2023-04-27T15:27:56.189Z,27.60
2023-04-27T15:32:59.728Z,25.20
2023-04-27T15:38:04.015Z,23.30
2023-04-27T15:43:08.797Z,22.40
2023-04-27T15:48:12.626Z,23.90
2023-04-27T15:53:16.227Z,23.60
2023-04-27T15:58:21.559Z,21.90
2023-04-27T16:03:25.282Z,21.30
2023-04-27T16:08:28.786Z,20.20
2023-04-27T16:13:33.700Z,19.80
2023-04-27T16:18:38.707Z,20.20
2023-04-27T16:23:42.194Z,19.90
2023-04-27T16:28:47.091Z,19.20
2023-04-27T16:33:50.926Z,18.20
2023-04-27T16:38:54.637Z,17.50
2023-04-27T16:43:59.390Z,17.20
2023-04-27T16:49:03.794Z,16.80
2023-04-27T16:54:07.490Z,17.10
2023-04-27T16:59:12.829Z,17.10
2023-04-27T17:04:16.657Z,16.70
2023-04-27T17:09:20.245Z,16.10
2023-04-27T17:14:25.208Z,15.40
2023-04-27T17:19:28.939Z,14.90
2023-04-27T17:24:32.374Z,14.80
2023-04-27T17:29:37.451Z,14.50
2023-04-27T17:34:42.941Z,14.50
2023-04-27T17:39:47.448Z,14.30
2023-04-27T17:44:52.280Z,14.30
2023-04-27T17:49:56.112Z,14.20
2023-04-27T17:54:59.795Z,14.10
2023-04-27T18:00:05.051Z,14.00
2023-04-27T18:05:08.892Z,13.80
2023-04-27T18:10:12.541Z,13.70
2023-04-27T18:15:17.383Z,13.50
2023-04-27T18:20:23.224Z,13.50
2023-04-27T18:25:26.942Z,13.40
2023-04-27T18:30:33.041Z,13.20
2023-04-27T18:35:37.081Z,13.10
2023-04-27T18:40:41.783Z,13.10
2023-04-27T18:45:46.841Z,12.90
2023-04-27T18:50:50.287Z,12.80
2023-04-27T18:55:53.783Z,12.70
2023-04-27T19:00:58.661Z,12.70
2023-04-27T19:06:02.158Z,12.60
2023-04-27T19:11:05.834Z,12.60
2023-04-27T19:16:11.147Z,12.60
2023-04-27T19:21:14.652Z,12.60
2023-04-27T19:26:18.289Z,12.50
2023-04-27T19:31:23.154Z,12.50
2023-04-27T19:36:28.158Z,12.40
2023-04-27T19:41:31.617Z,12.40
2023-04-27T19:46:36.492Z,12.30
2023-04-27T19:51:40.764Z,12.30
2023-04-27T19:56:44.180Z,12.30
2023-04-27T20:01:49.679Z,12.30
2023-04-27T20:06:53.096Z,12.30
2023-04-27T20:11:56.730Z,12.20
2023-04-27T20:17:02.451Z,12.10
2023-04-27T20:22:06.047Z,12.00
2023-04-27T20:27:09.733Z,11.90
2023-04-27T20:32:14.560Z,11.90
2023-04-27T20:37:19.183Z,11.80
2023-04-27T20:42:22.664Z,11.80
2023-04-27T20:47:27.486Z,11.80
2023-04-27T20:52:33.842Z,11.70
2023-04-27T20:57:38.282Z,11.70
2023-04-27T21:02:43.573Z,11.60
2023-04-27T21:07:47.383Z,11.50
2023-04-27T21:12:51.050Z,11.50
2023-04-27T21:17:55.893Z,11.40
2023-04-27T21:22:59.453Z,11.30
2023-04-27T21:28:02.920Z,11.20
2023-04-27T21:33:07.985Z,11.20
2023-04-27T21:38:11.789Z,11.10
2023-04-27T21:43:15.449Z,11.00
2023-04-27T21:48:20.216Z,10.90
2023-04-27T21:53:23.939Z,10.80
2023-04-27T21:58:27.922Z,10.80
2023-04-27T22:03:32.824Z,10.70
2023-04-27T22:08:36.742Z,10.60
2023-04-27T22:13:40.467Z,10.60
2023-04-27T22:18:45.508Z,10.50
2023-04-27T22:23:49.071Z,10.50
2023-04-27T22:28:52.552Z,10.40
